createdAt,value
2023-09-06T00:21:05.500Z,71.12
2023-09-06T00:24:50.898Z,70.63
2023-09-06T00:28:44.912Z,70.88
2023-09-06T00:32:29.997Z,70.99
2023-09-06T00:48:07.175Z,71.07
2023-09-06T00:52:01.389Z,70.90
2023-09-06T01:15:32.045Z,71.17
2023-09-06T01:19:25.598Z,71.24
2023-09-06T01:23:19.134Z,71.34
2023-09-06T01:27:12.529Z,71.47
2023-09-06T01:43:05.218Z,71.91
2023-09-06T01:46:52.835Z,71.96
2023-09-06T01:50:25.559Z,72.18
2023-09-06T01:54:20.171Z,72.67
2023-09-06T02:39:12.305Z,74.31
2023-09-06T02:43:06.309Z,74.16
2023-09-06T02:59:04.806Z,74.81
2023-09-06T03:02:57.848Z,74.67
2023-09-06T03:06:49.523Z,74.81
2023-09-06T03:10:37.072Z,74.68
2023-09-06T03:37:45.469Z,74.63
2023-09-06T03:41:38.697Z,75.00
2023-09-06T03:45:29.636Z,74.98
2023-09-06T04:01:35.669Z,74.83
2023-09-06T04:05:25.854Z,74.85
2023-09-06T04:09:13.209Z,75.05
2023-09-06T04:13:04.991Z,74.57
2023-09-06T04:25:06.522Z,75.35
2023-09-06T04:28:57.513Z,75.48
2023-09-06T04:32:51.459Z,75.35
2023-09-06T04:44:46.061Z,75.69
2023-09-06T04:48:41.639Z,75.98
2023-09-06T04:52:34.445Z,76.61
2023-09-06T05:08:23.760Z,76.75
2023-09-06T05:12:16.853Z,76.70
2023-09-06T05:16:11.121Z,76.91
2023-09-06T05:20:33.158Z,76.96
2023-09-06T05:24:25.509Z,77.90
2023-09-06T05:28:17.434Z,77.75
2023-09-06T05:43:54.439Z,78.49
2023-09-06T05:47:48.734Z,78.76
2023-09-06T05:51:43.305Z,78.67
2023-09-06T06:07:26.838Z,79.22
2023-09-06T06:11:19.483Z,78.51
2023-09-06T06:27:00.964Z,76.97
2023-09-06T06:30:53.921Z,76.65
2023-09-06T06:34:33.325Z,75.55
2023-09-06T06:38:25.213Z,75.62
2023-09-06T06:42:04.154Z,74.98
2023-09-06T06:45:53.580Z,75.15
2023-09-06T07:01:09.322Z,70.22
2023-09-06T07:04:52.601Z,70.25
2023-09-06T07:08:07.697Z,69.00
2023-09-06T07:11:38.019Z,67.82
2023-09-06T07:14:40.068Z,67.55
2023-09-06T07:18:10.563Z,66.82
2023-09-06T07:21:47.633Z,66.63
2023-09-06T07:24:45.965Z,64.38
2023-09-06T07:27:47.364Z,62.82
2023-09-06T07:30:56.935Z,63.00
2023-09-06T07:43:21.444Z,59.03
2023-09-06T07:49:39.427Z,57.43
2023-09-06T07:52:39.689Z,56.19
2023-09-06T07:55:32.334Z,56.46
2023-09-06T07:58:08.137Z,54.75
2023-09-06T08:00:59.338Z,54.77
2023-09-06T08:03:48.057Z,54.30
2023-09-06T08:06:26.357Z,55.01
2023-09-06T08:09:10.240Z,53.56
2023-09-06T08:11:58.251Z,53.73
2023-09-06T08:14:43.822Z,53.18
2023-09-06T08:17:51.193Z,52.05
2023-09-06T08:20:33.479Z,52.65
2023-09-06T08:23:10.576Z,53.20
2023-09-06T08:25:44.010Z,51.87
2023-09-06T08:28:20.208Z,51.46
2023-09-06T08:30:52.248Z,50.85
2023-09-06T08:33:41.348Z,49.26
2023-09-06T08:36:11.606Z,48.40
2023-09-06T08:39:02.101Z,47.69
2023-09-06T08:41:36.963Z,47.91
2023-09-06T08:44:19.673Z,47.68
2023-09-06T08:47:35.297Z,47.30
2023-09-06T08:50:16.465Z,46.05
2023-09-06T08:52:50.548Z,44.98
2023-09-06T08:55:32.628Z,45.41
2023-09-06T08:58:12.744Z,45.10
2023-09-06T09:00:48.995Z,44.66
2023-09-06T09:03:19.459Z,44.90
2023-09-06T09:05:50.237Z,43.72
2023-09-06T09:08:40.781Z,43.94
2023-09-06T09:11:10.714Z,41.63
2023-09-06T09:13:42.737Z,42.10
2023-09-06T09:16:14.795Z,42.64
2023-09-06T09:18:47.057Z,42.32
2023-09-06T09:21:17.125Z,40.91
2023-09-06T09:23:59.270Z,41.35
2023-09-06T09:26:29.798Z,41.45
2023-09-06T09:29:05.165Z,40.23
2023-09-06T09:31:35.332Z,39.72
2023-09-06T09:34:08.706Z,38.71
2023-09-06T09:36:40.007Z,38.79
2023-09-06T09:39:15.522Z,39.45
2023-09-06T09:41:57.451Z,38.03
2023-09-06T09:44:30.088Z,38.50
2023-09-06T09:47:28.547Z,38.52
2023-09-06T09:50:06.593Z,37.84
2023-09-06T09:52:37.789Z,37.50
2023-09-06T09:55:10.282Z,37.48
2023-09-06T09:57:42.161Z,36.79
2023-09-06T10:00:17.111Z,35.52
2023-09-06T10:02:49.356Z,36.97
2023-09-06T10:05:18.767Z,36.27
2023-09-06T10:07:50.438Z,35.54
2023-09-06T10:10:21.106Z,35.18
2023-09-06T10:12:53.588Z,34.34
2023-09-06T10:15:26.905Z,34.09
2023-09-06T10:17:58.449Z,34.21
2023-09-06T10:20:32.018Z,32.78
2023-09-06T10:23:07.871Z,35.11
2023-09-06T10:25:50.834Z,33.48
2023-09-06T10:28:32.841Z,33.36
2023-09-06T10:31:10.016Z,33.89
2023-09-06T10:33:43.861Z,33.27
2023-09-06T10:36:21.369Z,32.48
2023-09-06T10:38:54.055Z,33.23
2023-09-06T10:41:28.645Z,33.40
2023-09-06T10:44:09.426Z,33.26
2023-09-06T10:46:41.044Z,32.70
2023-09-06T10:49:15.740Z,34.06
2023-09-06T10:52:10.215Z,33.73
2023-09-06T10:54:42.830Z,33.70
2023-09-06T10:57:17.417Z,32.86
2023-09-06T10:59:58.284Z,32.38
2023-09-06T11:02:29.776Z,32.30
2023-09-06T11:05:11.597Z,33.37
2023-09-06T11:07:51.143Z,31.91
2023-09-06T11:10:25.524Z,31.95
2023-09-06T11:12:59.447Z,30.93
2023-09-06T11:15:37.778Z,30.36
2023-09-06T11:18:07.998Z,30.76
2023-09-06T11:20:39.109Z,30.74
2023-09-06T11:23:10.432Z,31.42
2023-09-06T11:25:40.737Z,31.95
2023-09-06T11:28:21.202Z,30.92
2023-09-06T11:30:52.621Z,30.68
2023-09-06T11:33:32.906Z,30.75
2023-09-06T11:36:05.522Z,30.99
2023-09-06T11:38:36.903Z,30.96
2023-09-06T11:41:10.410Z,31.18
2023-09-06T11:43:44.978Z,30.54
2023-09-06T11:46:15.970Z,30.84
2023-09-06T11:48:48.821Z,29.74
2023-09-06T11:51:25.431Z,29.73
2023-09-06T11:54:02.614Z,29.92
2023-09-06T11:56:37.913Z,30.47
2023-09-06T11:59:16.210Z,29.31
2023-09-06T12:01:46.694Z,29.73
2023-09-06T12:04:20.480Z,30.00
2023-09-06T12:06:53.764Z,29.44
2023-09-06T12:09:25.554Z,28.18
2023-09-06T12:11:55.985Z,29.76
2023-09-06T12:14:26.866Z,27.84
2023-09-06T12:16:58.651Z,28.68
2023-09-06T12:19:29.230Z,28.83
2023-09-06T12:21:59.903Z,29.58
2023-09-06T12:24:30.399Z,29.10
2023-09-06T12:27:02.294Z,28.83
2023-09-06T12:29:32.625Z,28.22
2023-09-06T12:32:02.396Z,28.40
2023-09-06T12:34:33.078Z,28.50
2023-09-06T12:37:04.381Z,29.17
2023-09-06T12:39:34.165Z,28.66
2023-09-06T12:42:08.773Z,28.58
2023-09-06T12:44:39.731Z,28.89
2023-09-06T12:47:09.469Z,28.40
2023-09-06T12:49:39.942Z,29.34
2023-09-06T12:52:12.252Z,29.22
2023-09-06T12:54:42.720Z,29.99
2023-09-06T12:57:13.205Z,29.13
2023-09-06T12:59:43.368Z,28.26
2023-09-06T13:02:13.614Z,28.01
2023-09-06T13:04:44.029Z,29.09
2023-09-06T13:07:14.469Z,29.46
2023-09-06T13:09:44.838Z,28.68
2023-09-06T13:12:15.201Z,28.90
2023-09-06T13:14:45.391Z,28.84
2023-09-06T13:17:14.536Z,30.56
2023-09-06T13:19:45.353Z,31.61
2023-09-06T13:22:15.454Z,31.81
2023-09-06T13:24:47.128Z,30.45
2023-09-06T13:27:17.377Z,30.31
2023-09-06T13:29:47.526Z,29.97
2023-09-06T13:32:17.806Z,29.90
2023-09-06T13:34:48.073Z,28.77
2023-09-06T13:37:20.525Z,29.13
2023-09-06T13:39:49.594Z,29.65
2023-09-06T13:42:20.093Z,29.87
2023-09-06T13:44:49.756Z,29.73
2023-09-06T13:47:19.901Z,30.11
2023-09-06T13:49:52.135Z,29.52
2023-09-06T13:52:22.558Z,29.69
2023-09-06T13:54:52.784Z,28.99
2023-09-06T13:57:24.441Z,30.71
2023-09-06T13:59:59.381Z,29.76
2023-09-06T14:02:30.173Z,30.46
2023-09-06T14:05:00.763Z,29.60
2023-09-06T14:07:34.120Z,29.40
2023-09-06T14:10:03.050Z,30.17
2023-09-06T14:12:32.947Z,29.98
2023-09-06T14:15:03.662Z,29.79
2023-09-06T14:17:33.983Z,29.30
2023-09-06T14:20:05.332Z,29.59
2023-09-06T14:22:35.518Z,30.03
2023-09-06T14:25:06.154Z,30.18
2023-09-06T14:27:36.341Z,30.02
2023-09-06T14:30:07.135Z,30.03
2023-09-06T14:32:37.380Z,29.83
2023-09-06T14:35:10.015Z,30.53
2023-09-06T14:37:40.828Z,30.81
2023-09-06T14:40:11.634Z,30.52
2023-09-06T14:42:44.198Z,30.62
2023-09-06T14:45:14.493Z,30.18
2023-09-06T14:47:45.083Z,30.37
2023-09-06T14:50:18.676Z,30.91
2023-09-06T14:52:53.303Z,31.24
2023-09-06T14:55:22.338Z,31.11
2023-09-06T14:57:52.436Z,31.23
2023-09-06T15:00:23.853Z,31.58
2023-09-06T15:02:57.222Z,31.87
2023-09-06T15:05:28.357Z,31.59
2023-09-06T15:07:58.832Z,31.72
2023-09-06T15:10:33.592Z,32.04
2023-09-06T15:13:06.587Z,31.91
2023-09-06T15:15:35.892Z,32.68
2023-09-06T15:18:06.700Z,32.38
2023-09-06T15:20:38.085Z,31.54
2023-09-06T15:23:07.964Z,32.06
2023-09-06T15:25:37.445Z,32.30
2023-09-06T15:28:07.691Z,32.48
2023-09-06T15:30:37.689Z,32.87
2023-09-06T15:33:08.087Z,33.30
2023-09-06T15:35:39.275Z,33.65
2023-09-06T15:38:09.774Z,34.60
2023-09-06T15:40:40.493Z,35.07
2023-09-06T15:43:10.996Z,35.72
2023-09-06T15:45:40.729Z,36.04
2023-09-06T15:48:13.770Z,36.28
2023-09-06T15:50:44.123Z,36.41
2023-09-06T15:53:14.280Z,37.28
2023-09-06T15:55:44.698Z,37.30
2023-09-06T15:58:14.572Z,37.60
2023-09-06T16:00:44.793Z,37.46
2023-09-06T16:03:16.559Z,38.19
2023-09-06T16:05:47.028Z,38.13
2023-09-06T16:08:17.329Z,38.28
2023-09-06T16:10:47.431Z,38.49
2023-09-06T16:13:17.514Z,38.54
2023-09-06T16:15:50.310Z,38.48
2023-09-06T16:18:20.655Z,38.95
2023-09-06T16:20:50.768Z,39.08
2023-09-06T16:23:20.934Z,39.61
2023-09-06T16:25:51.037Z,39.41
2023-09-06T16:28:21.184Z,40.01
2023-09-06T16:30:51.280Z,41.09
2023-09-06T16:33:21.475Z,41.53
2023-09-06T16:35:51.691Z,41.20
2023-09-06T16:38:22.282Z,41.25
2023-09-06T16:40:53.128Z,42.99
2023-09-06T16:43:22.052Z,44.39
2023-09-06T16:45:52.398Z,45.20
2023-09-06T16:48:27.670Z,45.46
2023-09-06T16:50:57.922Z,45.84
2023-09-06T16:53:28.089Z,46.00
2023-09-06T16:55:58.648Z,46.41
2023-09-06T16:58:28.563Z,46.95
2023-09-06T17:01:00.525Z,47.31
2023-09-06T17:03:31.385Z,47.83
2023-09-06T17:06:02.534Z,48.08
2023-09-06T17:08:35.271Z,48.91
2023-09-06T17:11:08.419Z,49.13
2023-09-06T17:13:38.503Z,49.23
2023-09-06T17:16:08.903Z,49.48
2023-09-06T17:18:47.866Z,49.47
2023-09-06T17:21:22.119Z,50.09
2023-09-06T17:24:03.508Z,50.42
2023-09-06T17:26:38.030Z,50.50
2023-09-06T17:29:16.350Z,50.98
2023-09-06T17:31:50.299Z,51.29
2023-09-06T17:34:28.063Z,51.19
2023-09-06T17:37:17.842Z,51.69
2023-09-06T17:40:00.506Z,51.90
2023-09-06T17:42:42.992Z,52.42
2023-09-06T17:45:16.800Z,52.80
2023-09-06T17:48:24.483Z,53.10
2023-09-06T17:50:59.452Z,53.23
2023-09-06T17:53:58.162Z,53.49
2023-09-06T17:56:41.778Z,54.36
2023-09-06T17:59:31.951Z,54.56
2023-09-06T18:02:21.959Z,54.76
2023-09-06T18:05:03.495Z,55.17
2023-09-06T18:07:53.949Z,55.65
2023-09-06T18:10:53.603Z,55.84
2023-09-06T18:13:46.387Z,56.58
2023-09-06T18:16:46.863Z,56.96
2023-09-06T18:19:50.491Z,57.16
2023-09-06T18:23:08.974Z,57.82
2023-09-06T18:26:29.594Z,57.64
2023-09-06T18:29:36.607Z,57.83
2023-09-06T18:33:04.475Z,57.82
2023-09-06T18:36:29.823Z,58.15
2023-09-06T18:39:44.437Z,58.73
2023-09-06T18:43:18.761Z,60.23
2023-09-06T18:46:57.907Z,60.69
2023-09-06T18:50:31.869Z,60.75
2023-09-06T18:53:45.698Z,61.14
2023-09-06T19:30:04.601Z,63.24
2023-09-06T19:33:57.507Z,63.79
2023-09-06T19:37:50.313Z,64.03
2023-09-06T19:41:42.876Z,64.05
2023-09-06T19:53:35.595Z,64.38
2023-09-06T19:57:27.364Z,64.41
2023-09-06T20:01:20.387Z,64.73
2023-09-06T20:21:00.516Z,65.72
2023-09-06T20:24:53.873Z,66.12
2023-09-06T20:28:47.501Z,66.21
2023-09-06T20:44:24.431Z,66.86
2023-09-06T20:48:09.565Z,67.51
2023-09-06T20:56:01.986Z,67.15
2023-09-06T20:59:54.228Z,67.18
2023-09-06T21:03:45.918Z,67.32
2023-09-06T21:23:19.132Z,67.51
2023-09-06T21:27:12.507Z,67.57
2023-09-06T21:30:40.105Z,68.60
2023-09-06T21:34:22.608Z,68.80
2023-09-06T21:38:40.597Z,68.58
2023-09-06T21:42:33.939Z,68.99
2023-09-06T21:46:27.575Z,69.42
2023-09-06T21:50:19.772Z,69.22
2023-09-06T22:13:35.896Z,69.06
2023-09-06T22:17:28.102Z,69.56
2023-09-06T22:40:47.203Z,70.03
2023-09-06T22:44:39.737Z,69.03
2023-09-06T22:48:48.008Z,69.59
2023-09-06T22:52:29.367Z,69.78
2023-09-06T23:11:52.314Z,70.10
2023-09-06T23:15:46.346Z,70.09
2023-09-06T23:39:36.910Z,70.86
2023-09-06T23:43:31.823Z,71.23
2023-09-06T23:47:24.978Z,71.05
2023-09-06T23:51:17.753Z,71.21
